sensor_id;sensor_type;location;lat;lon;timestamp;P1;durP1;ratioP1;P2;durP2;ratioP2
6374;SDS011;35400;45.472;-122.822;2023-11-21T00:01:11;1.57;;;1.10;;
6374;SDS011;35400;45.472;-122.822;2023-11-21T00:03:38;1.97;;;1.17;;
6374;SDS011;35400;45.472;-122.822;2023-11-21T00:06:06;3.20;;;0.97;;
6374;SDS011;35400;45.472;-122.822;2023-11-21T00:08:34;1.87;;;0.90;;
6374;SDS011;35400;45.472;-122.822;2023-11-21T00:11:01;2.77;;;0.90;;
6374;SDS011;35400;45.472;-122.822;2023-11-21T00:13:31;1.77;;;1.00;;
6374;SDS011;35400;45.472;-122.822;2023-11-21T00:15:58;1.47;;;1.30;;
6374;SDS011;35400;45.472;-122.822;2023-11-21T00:18:25;1.30;;;1.00;;
6374;SDS011;35400;45.472;-122.822;2023-11-21T00:20:52;1.73;;;1.00;;
6374;SDS011;35400;45.472;-122.822;2023-11-21T00:23:19;1.03;;;0.80;;
6374;SDS011;35400;45.472;-122.822;2023-11-21T00:25:45;1.93;;;1.00;;
6374;SDS011;35400;45.472;-122.822;2023-11-21T00:28:12;2.03;;;1.20;;
6374;SDS011;35400;45.472;-122.822;2023-11-21T00:30:39;2.00;;;1.37;;
6374;SDS011;35400;45.472;-122.822;2023-11-21T00:33:06;3.70;;;1.83;;
6374;SDS011;35400;45.472;-122.822;2023-11-21T00:35:33;4.03;;;1.60;;
6374;SDS011;35400;45.472;-122.822;2023-11-21T00:38:00;3.27;;;0.73;;
6374;SDS011;35400;45.472;-122.822;2023-11-21T00:40:29;1.77;;;0.93;;
6374;SDS011;35400;45.472;-122.822;2023-11-21T00:42:56;1.63;;;0.80;;
6374;SDS011;35400;45.472;-122.822;2023-11-21T00:45:24;1.40;;;1.00;;
6374;SDS011;35400;45.472;-122.822;2023-11-21T00:47:51;2.43;;;0.97;;
6374;SDS011;35400;45.472;-122.822;2023-11-21T00:50:18;2.77;;;0.97;;
6374;SDS011;35400;45.472;-122.822;2023-11-21T00:52:45;3.57;;;1.00;;
6374;SDS011;35400;45.472;-122.822;2023-11-21T00:55:12;2.13;;;1.03;;
6374;SDS011;35400;45.472;-122.822;2023-11-21T00:57:39;1.43;;;0.90;;
6374;SDS011;35400;45.472;-122.822;2023-11-21T01:00:06;1.60;;;0.73;;
6374;SDS011;35400;45.472;-122.822;2023-11-21T01:02:39;2.20;;;1.27;;
6374;SDS011;35400;45.472;-122.822;2023-11-21T01:05:06;1.77;;;1.33;;
6374;SDS011;35400;45.472;-122.822;2023-11-21T01:07:33;2.20;;;1.00;;
6374;SDS011;35400;45.472;-122.822;2023-11-21T01:10:02;2.13;;;0.80;;
6374;SDS011;35400;45.472;-122.822;2023-11-21T01:12:36;2.83;;;0.90;;
6374;SDS011;35400;45.472;-122.822;2023-11-21T01:15:07;1.97;;;0.70;;
6374;SDS011;35400;45.472;-122.822;2023-11-21T01:17:34;3.03;;;0.80;;
6374;SDS011;35400;45.472;-122.822;2023-11-21T01:20:01;2.50;;;0.90;;
6374;SDS011;35400;45.472;-122.822;2023-11-21T01:22:31;1.37;;;0.80;;
6374;SDS011;35400;45.472;-122.822;2023-11-21T01:24:59;2.50;;;0.93;;
6374;SDS011;35400;45.472;-122.822;2023-11-21T01:27:25;3.90;;;0.77;;
6374;SDS011;35400;45.472;-122.822;2023-11-21T01:29:52;3.60;;;3.30;;
6374;SDS011;35400;45.472;-122.822;2023-11-21T01:32:21;2.23;;;2.03;;
6374;SDS011;35400;45.472;-122.822;2023-11-21T01:34:47;6.93;;;3.23;;
6374;SDS011;35400;45.472;-122.822;2023-11-21T01:37:16;1.57;;;1.10;;
6374;SDS011;35400;45.472;-122.822;2023-11-21T01:39:43;2.50;;;1.20;;
6374;SDS011;35400;45.472;-122.822;2023-11-21T01:42:10;2.83;;;2.33;;
6374;SDS011;35400;45.472;-122.822;2023-11-21T01:44:39;2.90;;;1.70;;
6374;SDS011;35400;45.472;-122.822;2023-11-21T01:47:06;1.37;;;1.27;;
6374;SDS011;35400;45.472;-122.822;2023-11-21T01:49:35;1.37;;;1.10;;
6374;SDS011;35400;45.472;-122.822;2023-11-21T01:52:03;2.43;;;0.90;;
6374;SDS011;35400;45.472;-122.822;2023-11-21T01:54:30;1.00;;;0.90;;
6374;SDS011;35400;45.472;-122.822;2023-11-21T01:57:00;1.87;;;0.80;;
6374;SDS011;35400;45.472;-122.822;2023-11-21T01:59:35;2.70;;;1.00;;
6374;SDS011;35400;45.472;-122.822;2023-11-21T02:02:06;0.70;;;0.70;;
6374;SDS011;35400;45.472;-122.822;2023-11-21T02:04:36;1.67;;;1.20;;
6374;SDS011;35400;45.472;-122.822;2023-11-21T02:07:03;1.60;;;0.80;;
6374;SDS011;35400;45.472;-122.822;2023-11-21T02:09:33;1.63;;;0.80;;
6374;SDS011;35400;45.472;-122.822;2023-11-21T02:12:00;1.87;;;1.30;;
6374;SDS011;35400;45.472;-122.822;2023-11-21T02:14:27;0.67;;;0.67;;
6374;SDS011;35400;45.472;-122.822;2023-11-21T02:16:54;1.70;;;0.90;;
6374;SDS011;35400;45.472;-122.822;2023-11-21T02:19:23;1.67;;;0.90;;
6374;SDS011;35400;45.472;-122.822;2023-11-21T02:21:52;1.47;;;0.70;;
6374;SDS011;35400;45.472;-122.822;2023-11-21T02:24:20;0.70;;;0.70;;
6374;SDS011;35400;45.472;-122.822;2023-11-21T02:26:48;3.03;;;0.80;;
6374;SDS011;35400;45.472;-122.822;2023-11-21T02:29:19;2.27;;;0.97;;
6374;SDS011;35400;45.472;-122.822;2023-11-21T02:31:53;0.50;;;0.43;;
6374;SDS011;35400;45.472;-122.822;2023-11-21T02:34:21;2.77;;;0.63;;
6374;SDS011;35400;45.472;-122.822;2023-11-21T02:36:48;0.97;;;0.60;;
6374;SDS011;35400;45.472;-122.822;2023-11-21T02:39:15;1.07;;;0.70;;
6374;SDS011;35400;45.472;-122.822;2023-11-21T02:41:48;2.50;;;0.83;;
6374;SDS011;35400;45.472;-122.822;2023-11-21T02:44:15;1.23;;;0.50;;
6374;SDS011;35400;45.472;-122.822;2023-11-21T02:46:41;1.10;;;0.60;;
6374;SDS011;35400;45.472;-122.822;2023-11-21T02:49:08;1.80;;;0.70;;
6374;SDS011;35400;45.472;-122.822;2023-11-21T02:51:36;1.07;;;0.97;;
6374;SDS011;35400;45.472;-122.822;2023-11-21T02:54:06;2.77;;;1.10;;
6374;SDS011;35400;45.472;-122.822;2023-11-21T02:56:34;1.57;;;0.90;;
6374;SDS011;35400;45.472;-122.822;2023-11-21T02:59:02;1.53;;;1.00;;
6374;SDS011;35400;45.472;-122.822;2023-11-21T03:01:29;2.80;;;2.37;;
6374;SDS011;35400;45.472;-122.822;2023-11-21T03:03:56;6.97;;;4.77;;
6374;SDS011;35400;45.472;-122.822;2023-11-21T03:06:23;2.40;;;1.50;;
6374;SDS011;35400;45.472;-122.822;2023-11-21T03:08:50;2.40;;;2.10;;
6374;SDS011;35400;45.472;-122.822;2023-11-21T03:11:17;3.80;;;1.97;;
6374;SDS011;35400;45.472;-122.822;2023-11-21T03:13:44;3.17;;;2.03;;
6374;SDS011;35400;45.472;-122.822;2023-11-21T03:16:11;4.13;;;2.20;;
6374;SDS011;35400;45.472;-122.822;2023-11-21T03:18:39;1.47;;;1.37;;
6374;SDS011;35400;45.472;-122.822;2023-11-21T03:21:06;2.77;;;1.80;;
6374;SDS011;35400;45.472;-122.822;2023-11-21T03:23:37;1.60;;;1.50;;
6374;SDS011;35400;45.472;-122.822;2023-11-21T03:26:04;2.20;;;1.70;;
6374;SDS011;35400;45.472;-122.822;2023-11-21T03:28:34;3.13;;;1.40;;
6374;SDS011;35400;45.472;-122.822;2023-11-21T03:31:02;2.37;;;1.00;;
6374;SDS011;35400;45.472;-122.822;2023-11-21T03:33:29;1.60;;;1.20;;
6374;SDS011;35400;45.472;-122.822;2023-11-21T03:35:56;1.20;;;1.10;;
6374;SDS011;35400;45.472;-122.822;2023-11-21T03:38:23;1.80;;;0.93;;
6374;SDS011;35400;45.472;-122.822;2023-11-21T03:40:49;7.00;;;1.10;;
6374;SDS011;35400;45.472;-122.822;2023-11-21T03:43:18;3.00;;;1.07;;
6374;SDS011;35400;45.472;-122.822;2023-11-21T03:45:45;0.73;;;0.70;;
6374;SDS011;35400;45.472;-122.822;2023-11-21T03:48:12;2.00;;;1.40;;
6374;SDS011;35400;45.472;-122.822;2023-11-21T03:50:39;1.40;;;0.90;;
6374;SDS011;35400;45.472;-122.822;2023-11-21T03:53:06;2.30;;;2.10;;
6374;SDS011;35400;45.472;-122.822;2023-11-21T03:55:32;1.97;;;1.40;;
6374;SDS011;35400;45.472;-122.822;2023-11-21T03:57:59;3.20;;;2.47;;
6374;SDS011;35400;45.472;-122.822;2023-11-21T04:00:27;1.20;;;0.80;;
6374;SDS011;35400;45.472;-122.822;2023-11-21T04:02:54;1.33;;;1.00;;
6374;SDS011;35400;45.472;-122.822;2023-11-21T04:05:21;1.43;;;0.80;;
6374;SDS011;35400;45.472;-122.822;2023-11-21T04:07:49;2.90;;;0.90;;
6374;SDS011;35400;45.472;-122.822;2023-11-21T04:10:19;2.47;;;1.03;;
6374;SDS011;35400;45.472;-122.822;2023-11-21T04:12:46;1.87;;;0.73;;
6374;SDS011;35400;45.472;-122.822;2023-11-21T04:15:14;1.27;;;0.70;;
6374;SDS011;35400;45.472;-122.822;2023-11-21T04:17:41;0.83;;;0.60;;
6374;SDS011;35400;45.472;-122.822;2023-11-21T04:20:08;1.47;;;0.93;;
6374;SDS011;35400;45.472;-122.822;2023-11-21T04:22:36;2.03;;;1.00;;
6374;SDS011;35400;45.472;-122.822;2023-11-21T04:25:10;2.37;;;0.70;;
6374;SDS011;35400;45.472;-122.822;2023-11-21T04:27:39;1.07;;;0.70;;
6374;SDS011;35400;45.472;-122.822;2023-11-21T04:30:09;0.83;;;0.80;;
6374;SDS011;35400;45.472;-122.822;2023-11-21T04:32:37;1.63;;;0.80;;
6374;SDS011;35400;45.472;-122.822;2023-11-21T04:35:10;1.60;;;1.10;;
6374;SDS011;35400;45.472;-122.822;2023-11-21T04:37:37;0.60;;;0.60;;
6374;SDS011;35400;45.472;-122.822;2023-11-21T04:40:04;2.00;;;0.93;;
6374;SDS011;35400;45.472;-122.822;2023-11-21T04:42:34;1.53;;;0.80;;
6374;SDS011;35400;45.472;-122.822;2023-11-21T04:45:03;2.57;;;0.90;;
6374;SDS011;35400;45.472;-122.822;2023-11-21T04:47:34;1.07;;;0.70;;
6374;SDS011;35400;45.472;-122.822;2023-11-21T04:50:02;1.13;;;0.70;;
6374;SDS011;35400;45.472;-122.822;2023-11-21T04:52:30;2.27;;;0.93;;
6374;SDS011;35400;45.472;-122.822;2023-11-21T04:54:56;1.83;;;0.77;;
6374;SDS011;35400;45.472;-122.822;2023-11-21T04:57:24;1.63;;;0.93;;
6374;SDS011;35400;45.472;-122.822;2023-11-21T04:59:51;0.80;;;0.80;;
6374;SDS011;35400;45.472;-122.822;2023-11-21T05:02:18;0.87;;;0.87;;
6374;SDS011;35400;45.472;-122.822;2023-11-21T05:04:45;1.50;;;1.00;;
6374;SDS011;35400;45.472;-122.822;2023-11-21T05:07:12;1.03;;;0.93;;
6374;SDS011;35400;45.472;-122.822;2023-11-21T05:09:44;0.70;;;0.50;;
6374;SDS011;35400;45.472;-122.822;2023-11-21T05:12:12;1.40;;;0.90;;
6374;SDS011;35400;45.472;-122.822;2023-11-21T05:14:40;2.00;;;1.00;;
6374;SDS011;35400;45.472;-122.822;2023-11-21T05:17:07;1.73;;;0.77;;
6374;SDS011;35400;45.472;-122.822;2023-11-21T05:19:34;1.33;;;0.90;;
6374;SDS011;35400;45.472;-122.822;2023-11-21T05:22:01;0.77;;;0.60;;
6374;SDS011;35400;45.472;-122.822;2023-11-21T05:24:28;2.07;;;0.63;;
6374;SDS011;35400;45.472;-122.822;2023-11-21T05:26:55;0.80;;;0.80;;
6374;SDS011;35400;45.472;-122.822;2023-11-21T05:29:22;0.87;;;0.60;;
6374;SDS011;35400;45.472;-122.822;2023-11-21T05:31:49;2.20;;;0.80;;
6374;SDS011;35400;45.472;-122.822;2023-11-21T05:34:16;1.90;;;0.80;;
6374;SDS011;35400;45.472;-122.822;2023-11-21T05:36:43;0.93;;;0.60;;
6374;SDS011;35400;45.472;-122.822;2023-11-21T05:39:11;2.33;;;0.90;;
6374;SDS011;35400;45.472;-122.822;2023-11-21T05:41:38;0.70;;;0.70;;
6374;SDS011;35400;45.472;-122.822;2023-11-21T05:44:06;1.07;;;0.60;;
6374;SDS011;35400;45.472;-122.822;2023-11-21T05:46:33;1.47;;;0.80;;
6374;SDS011;35400;45.472;-122.822;2023-11-21T05:49:00;2.63;;;0.77;;
6374;SDS011;35400;45.472;-122.822;2023-11-21T05:51:27;0.90;;;0.70;;
6374;SDS011;35400;45.472;-122.822;2023-11-21T05:53:54;3.03;;;0.80;;
6374;SDS011;35400;45.472;-122.822;2023-11-21T05:56:21;2.00;;;0.60;;
6374;SDS011;35400;45.472;-122.822;2023-11-21T05:58:48;0.60;;;0.60;;
6374;SDS011;35400;45.472;-122.822;2023-11-21T06:01:14;1.50;;;0.60;;
6374;SDS011;35400;45.472;-122.822;2023-11-21T06:03:41;1.27;;;0.90;;
6374;SDS011;35400;45.472;-122.822;2023-11-21T06:06:09;1.37;;;0.93;;
6374;SDS011;35400;45.472;-122.822;2023-11-21T06:08:35;0.33;;;0.33;;
6374;SDS011;35400;45.472;-122.822;2023-11-21T06:11:02;2.53;;;0.77;;
6374;SDS011;35400;45.472;-122.822;2023-11-21T06:13:29;1.33;;;0.73;;
6374;SDS011;35400;45.472;-122.822;2023-11-21T06:15:56;1.70;;;0.80;;
6374;SDS011;35400;45.472;-122.822;2023-11-21T06:18:24;1.03;;;0.63;;
6374;SDS011;35400;45.472;-122.822;2023-11-21T06:20:50;1.20;;;0.70;;
6374;SDS011;35400;45.472;-122.822;2023-11-21T06:23:18;1.03;;;0.67;;
6374;SDS011;35400;45.472;-122.822;2023-11-21T06:25:45;2.80;;;0.70;;
6374;SDS011;35400;45.472;-122.822;2023-11-21T06:28:12;2.37;;;0.90;;
6374;SDS011;35400;45.472;-122.822;2023-11-21T06:30:41;2.17;;;0.80;;
6374;SDS011;35400;45.472;-122.822;2023-11-21T06:33:08;0.70;;;0.70;;
6374;SDS011;35400;45.472;-122.822;2023-11-21T06:35:34;1.80;;;0.80;;
6374;SDS011;35400;45.472;-122.822;2023-11-21T06:38:01;2.30;;;0.80;;
6374;SDS011;35400;45.472;-122.822;2023-11-21T06:40:28;2.33;;;0.70;;
6374;SDS011;35400;45.472;-122.822;2023-11-21T06:42:55;1.93;;;0.80;;
6374;SDS011;35400;45.472;-122.822;2023-11-21T06:45:24;1.27;;;0.77;;
6374;SDS011;35400;45.472;-122.822;2023-11-21T06:47:51;1.40;;;0.50;;
6374;SDS011;35400;45.472;-122.822;2023-11-21T06:50:18;2.30;;;0.70;;
6374;SDS011;35400;45.472;-122.822;2023-11-21T06:52:44;1.87;;;0.80;;
6374;SDS011;35400;45.472;-122.822;2023-11-21T06:55:11;1.03;;;0.60;;
6374;SDS011;35400;45.472;-122.822;2023-11-21T06:57:38;1.73;;;0.70;;
6374;SDS011;35400;45.472;-122.822;2023-11-21T07:00:05;1.13;;;0.60;;
6374;SDS011;35400;45.472;-122.822;2023-11-21T07:02:34;1.20;;;0.60;;
6374;SDS011;35400;45.472;-122.822;2023-11-21T07:05:01;0.80;;;0.70;;
6374;SDS011;35400;45.472;-122.822;2023-11-21T07:07:29;0.77;;;0.60;;
6374;SDS011;35400;45.472;-122.822;2023-11-21T07:09:56;1.93;;;0.77;;
6374;SDS011;35400;45.472;-122.822;2023-11-21T07:12:23;1.53;;;0.70;;
6374;SDS011;35400;45.472;-122.822;2023-11-21T07:14:51;1.23;;;0.70;;
6374;SDS011;35400;45.472;-122.822;2023-11-21T07:17:19;0.83;;;0.67;;
6374;SDS011;35400;45.472;-122.822;2023-11-21T07:19:46;4.43;;;0.97;;
6374;SDS011;35400;45.472;-122.822;2023-11-21T07:22:12;0.90;;;0.63;;
6374;SDS011;35400;45.472;-122.822;2023-11-21T07:24:39;2.87;;;1.10;;
6374;SDS011;35400;45.472;-122.822;2023-11-21T07:27:06;0.87;;;0.60;;
6374;SDS011;35400;45.472;-122.822;2023-11-21T07:29:33;1.17;;;0.70;;
6374;SDS011;35400;45.472;-122.822;2023-11-21T07:32:00;1.23;;;0.87;;
6374;SDS011;35400;45.472;-122.822;2023-11-21T07:34:27;2.50;;;0.70;;
6374;SDS011;35400;45.472;-122.822;2023-11-21T07:36:54;3.13;;;0.60;;
6374;SDS011;35400;45.472;-122.822;2023-11-21T07:39:20;1.00;;;0.70;;
6374;SDS011;35400;45.472;-122.822;2023-11-21T07:41:47;1.53;;;0.83;;
6374;SDS011;35400;45.472;-122.822;2023-11-21T07:44:18;2.63;;;1.77;;
6374;SDS011;35400;45.472;-122.822;2023-11-21T07:46:46;7.47;;;5.50;;
6374;SDS011;35400;45.472;-122.822;2023-11-21T07:49:13;1.67;;;1.00;;
6374;SDS011;35400;45.472;-122.822;2023-11-21T07:51:46;1.93;;;0.83;;
6374;SDS011;35400;45.472;-122.822;2023-11-21T07:54:12;1.40;;;0.70;;
6374;SDS011;35400;45.472;-122.822;2023-11-21T07:56:39;3.13;;;0.70;;
6374;SDS011;35400;45.472;-122.822;2023-11-21T07:59:06;1.53;;;0.90;;
6374;SDS011;35400;45.472;-122.822;2023-11-21T08:01:33;1.40;;;0.80;;
6374;SDS011;35400;45.472;-122.822;2023-11-21T08:04:00;2.57;;;1.43;;
6374;SDS011;35400;45.472;-122.822;2023-11-21T08:06:29;3.43;;;2.60;;
6374;SDS011;35400;45.472;-122.822;2023-11-21T08:08:56;2.67;;;1.53;;
6374;SDS011;35400;45.472;-122.822;2023-11-21T08:11:23;1.60;;;0.70;;
6374;SDS011;35400;45.472;-122.822;2023-11-21T08:13:52;5.57;;;2.13;;
6374;SDS011;35400;45.472;-122.822;2023-11-21T08:16:20;2.10;;;0.77;;
6374;SDS011;35400;45.472;-122.822;2023-11-21T08:18:46;1.03;;;0.73;;
6374;SDS011;35400;45.472;-122.822;2023-11-21T08:21:13;2.93;;;1.80;;
6374;SDS011;35400;45.472;-122.822;2023-11-21T08:23:40;1.00;;;1.00;;
6374;SDS011;35400;45.472;-122.822;2023-11-21T08:26:07;2.33;;;0.90;;
6374;SDS011;35400;45.472;-122.822;2023-11-21T08:28:34;2.03;;;0.67;;
6374;SDS011;35400;45.472;-122.822;2023-11-21T08:31:01;0.80;;;0.50;;
6374;SDS011;35400;45.472;-122.822;2023-11-21T08:33:28;1.87;;;0.90;;
6374;SDS011;35400;45.472;-122.822;2023-11-21T08:35:55;0.43;;;0.43;;
6374;SDS011;35400;45.472;-122.822;2023-11-21T08:38:21;1.20;;;0.53;;
6374;SDS011;35400;45.472;-122.822;2023-11-21T08:40:48;1.43;;;0.70;;
6374;SDS011;35400;45.472;-122.822;2023-11-21T08:43:15;2.17;;;0.90;;
6374;SDS011;35400;45.472;-122.822;2023-11-21T08:45:45;3.03;;;0.83;;
6374;SDS011;35400;45.472;-122.822;2023-11-21T08:48:12;1.83;;;0.70;;
6374;SDS011;35400;45.472;-122.822;2023-11-21T08:50:39;1.80;;;0.83;;
6374;SDS011;35400;45.472;-122.822;2023-11-21T08:53:06;1.73;;;0.70;;
6374;SDS011;35400;45.472;-122.822;2023-11-21T08:55:32;1.83;;;0.83;;
6374;SDS011;35400;45.472;-122.822;2023-11-21T08:58:02;2.40;;;0.73;;
6374;SDS011;35400;45.472;-122.822;2023-11-21T09:00:31;2.77;;;1.00;;
6374;SDS011;35400;45.472;-122.822;2023-11-21T09:02:59;0.97;;;0.70;;
6374;SDS011;35400;45.472;-122.822;2023-11-21T09:05:29;1.50;;;0.87;;
6374;SDS011;35400;45.472;-122.822;2023-11-21T09:07:56;2.60;;;0.60;;
6374;SDS011;35400;45.472;-122.822;2023-11-21T09:10:22;1.57;;;1.07;;
6374;SDS011;35400;45.472;-122.822;2023-11-21T09:12:51;1.07;;;0.60;;
6374;SDS011;35400;45.472;-122.822;2023-11-21T09:15:17;0.97;;;0.70;;
6374;SDS011;35400;45.472;-122.822;2023-11-21T09:17:45;2.27;;;0.67;;
6374;SDS011;35400;45.472;-122.822;2023-11-21T09:20:13;2.67;;;0.80;;
6374;SDS011;35400;45.472;-122.822;2023-11-21T09:22:40;2.57;;;0.97;;
6374;SDS011;35400;45.472;-122.822;2023-11-21T09:25:07;3.80;;;1.20;;
6374;SDS011;35400;45.472;-122.822;2023-11-21T09:27:34;3.40;;;0.80;;
6374;SDS011;35400;45.472;-122.822;2023-11-21T09:30:01;1.53;;;0.67;;
6374;SDS011;35400;45.472;-122.822;2023-11-21T09:32:31;2.10;;;0.90;;
6374;SDS011;35400;45.472;-122.822;2023-11-21T09:34:57;1.30;;;0.60;;
6374;SDS011;35400;45.472;-122.822;2023-11-21T09:37:26;1.77;;;0.70;;
6374;SDS011;35400;45.472;-122.822;2023-11-21T09:39:53;0.77;;;0.50;;
6374;SDS011;35400;45.472;-122.822;2023-11-21T09:42:23;1.43;;;0.60;;
6374;SDS011;35400;45.472;-122.822;2023-11-21T09:44:58;2.33;;;1.00;;
6374;SDS011;35400;45.472;-122.822;2023-11-21T09:47:33;1.70;;;0.80;;
6374;SDS011;35400;45.472;-122.822;2023-11-21T09:50:04;1.93;;;0.70;;
6374;SDS011;35400;45.472;-122.822;2023-11-21T09:52:45;2.33;;;0.80;;
6374;SDS011;35400;45.472;-122.822;2023-11-21T09:55:30;0.80;;;0.60;;
6374;SDS011;35400;45.472;-122.822;2023-11-21T09:58:04;3.13;;;1.03;;
6374;SDS011;35400;45.472;-122.822;2023-11-21T10:00:33;1.23;;;0.63;;
6374;SDS011;35400;45.472;-122.822;2023-11-21T10:03:01;1.10;;;0.70;;
6374;SDS011;35400;45.472;-122.822;2023-11-21T10:05:28;3.77;;;1.30;;
6374;SDS011;35400;45.472;-122.822;2023-11-21T10:07:55;1.60;;;1.03;;
6374;SDS011;35400;45.472;-122.822;2023-11-21T10:10:25;1.63;;;0.73;;
6374;SDS011;35400;45.472;-122.822;2023-11-21T10:12:55;1.37;;;0.70;;
6374;SDS011;35400;45.472;-122.822;2023-11-21T10:15:23;2.60;;;1.00;;
6374;SDS011;35400;45.472;-122.822;2023-11-21T10:17:54;2.77;;;1.00;;
6374;SDS011;35400;45.472;-122.822;2023-11-21T10:20:22;0.80;;;0.60;;
6374;SDS011;35400;45.472;-122.822;2023-11-21T10:22:50;1.73;;;0.77;;
6374;SDS011;35400;45.472;-122.822;2023-11-21T10:25:17;2.53;;;0.97;;
6374;SDS011;35400;45.472;-122.822;2023-11-21T10:27:47;3.50;;;1.00;;
6374;SDS011;35400;45.472;-122.822;2023-11-21T10:30:18;1.20;;;0.67;;
6374;SDS011;35400;45.472;-122.822;2023-11-21T10:32:45;1.17;;;0.67;;
6374;SDS011;35400;45.472;-122.822;2023-11-21T10:35:12;2.83;;;1.00;;
6374;SDS011;35400;45.472;-122.822;2023-11-21T10:37:39;2.10;;;1.20;;
6374;SDS011;35400;45.472;-122.822;2023-11-21T10:40:07;2.43;;;0.97;;
6374;SDS011;35400;45.472;-122.822;2023-11-21T10:42:38;2.77;;;1.23;;
6374;SDS011;35400;45.472;-122.822;2023-11-21T10:45:06;0.53;;;0.53;;
6374;SDS011;35400;45.472;-122.822;2023-11-21T10:47:40;0.70;;;0.60;;
6374;SDS011;35400;45.472;-122.822;2023-11-21T10:50:08;2.97;;;0.93;;
6374;SDS011;35400;45.472;-122.822;2023-11-21T10:52:37;1.27;;;0.77;;
6374;SDS011;35400;45.472;-122.822;2023-11-21T10:55:15;2.30;;;0.70;;
6374;SDS011;35400;45.472;-122.822;2023-11-21T10:57:44;2.33;;;0.80;;
6374;SDS011;35400;45.472;-122.822;2023-11-21T11:00:15;1.53;;;0.53;;
6374;SDS011;35400;45.472;-122.822;2023-11-21T11:02:50;1.57;;;0.97;;
6374;SDS011;35400;45.472;-122.822;2023-11-21T11:05:20;1.80;;;0.67;;
6374;SDS011;35400;45.472;-122.822;2023-11-21T11:07:52;1.87;;;0.60;;
6374;SDS011;35400;45.472;-122.822;2023-11-21T11:10:27;0.77;;;0.43;;
6374;SDS011;35400;45.472;-122.822;2023-11-21T11:12:57;0.87;;;0.37;;
6374;SDS011;35400;45.472;-122.822;2023-11-21T11:15:25;1.90;;;0.70;;
6374;SDS011;35400;45.472;-122.822;2023-11-21T11:17:54;2.23;;;0.80;;
6374;SDS011;35400;45.472;-122.822;2023-11-21T11:20:43;1.50;;;0.70;;
6374;SDS011;35400;45.472;-122.822;2023-11-21T11:29:02;1.13;;;0.60;;
6374;SDS011;35400;45.472;-122.822;2023-11-21T11:32:36;2.23;;;0.63;;
6374;SDS011;35400;45.472;-122.822;2023-11-21T11:35:00;2.10;;;0.80;;
6374;SDS011;35400;45.472;-122.822;2023-11-21T11:37:42;1.40;;;0.60;;
6374;SDS011;35400;45.472;-122.822;2023-11-21T11:40:13;3.80;;;0.90;;
6374;SDS011;35400;45.472;-122.822;2023-11-21T11:42:54;2.23;;;0.70;;
6374;SDS011;35400;45.472;-122.822;2023-11-21T11:45:24;0.80;;;0.50;;
6374;SDS011;35400;45.472;-122.822;2023-11-21T11:48:02;2.93;;;0.70;;
6374;SDS011;35400;45.472;-122.822;2023-11-21T11:50:31;1.57;;;0.63;;
6374;SDS011;35400;45.472;-122.822;2023-11-21T11:53:19;1.87;;;0.70;;
6374;SDS011;35400;45.472;-122.822;2023-11-21T11:55:46;1.27;;;0.63;;
6374;SDS011;35400;45.472;-122.822;2023-11-21T11:58:44;1.77;;;0.80;;
6374;SDS011;35400;45.472;-122.822;2023-11-21T12:01:12;0.57;;;0.57;;
6374;SDS011;35400;45.472;-122.822;2023-11-21T12:03:39;0.60;;;0.40;;
6374;SDS011;35400;45.472;-122.822;2023-11-21T12:06:06;1.17;;;0.93;;
6374;SDS011;35400;45.472;-122.822;2023-11-21T12:08:34;1.67;;;1.33;;
6374;SDS011;35400;45.472;-122.822;2023-11-21T12:11:02;2.30;;;1.90;;
6374;SDS011;35400;45.472;-122.822;2023-11-21T12:13:30;2.67;;;2.23;;
6374;SDS011;35400;45.472;-122.822;2023-11-21T12:15:57;2.43;;;2.23;;
6374;SDS011;35400;45.472;-122.822;2023-11-21T12:18:25;3.10;;;2.20;;
6374;SDS011;35400;45.472;-122.822;2023-11-21T12:20:52;5.20;;;1.50;;
6374;SDS011;35400;45.472;-122.822;2023-11-21T12:23:19;2.37;;;1.30;;
6374;SDS011;35400;45.472;-122.822;2023-11-21T12:25:46;2.90;;;1.20;;
6374;SDS011;35400;45.472;-122.822;2023-11-21T12:28:13;1.97;;;0.73;;
6374;SDS011;35400;45.472;-122.822;2023-11-21T12:30:40;1.77;;;0.70;;
6374;SDS011;35400;45.472;-122.822;2023-11-21T12:33:07;4.27;;;0.83;;
6374;SDS011;35400;45.472;-122.822;2023-11-21T12:35:35;1.10;;;0.90;;
6374;SDS011;35400;45.472;-122.822;2023-11-21T12:38:02;1.50;;;0.60;;
6374;SDS011;35400;45.472;-122.822;2023-11-21T12:40:30;1.30;;;0.77;;
6374;SDS011;35400;45.472;-122.822;2023-11-21T12:42:58;1.10;;;0.63;;
6374;SDS011;35400;45.472;-122.822;2023-11-21T12:45:27;1.53;;;0.80;;
6374;SDS011;35400;45.472;-122.822;2023-11-21T12:48:01;0.73;;;0.57;;
6374;SDS011;35400;45.472;-122.822;2023-11-21T12:50:33;1.43;;;0.60;;
6374;SDS011;35400;45.472;-122.822;2023-11-21T12:53:03;1.07;;;0.97;;
6374;SDS011;35400;45.472;-122.822;2023-11-21T12:55:34;6.87;;;5.40;;
6374;SDS011;35400;45.472;-122.822;2023-11-21T12:58:06;9.60;;;7.30;;
6374;SDS011;35400;45.472;-122.822;2023-11-21T13:00:39;9.33;;;7.60;;
6374;SDS011;35400;45.472;-122.822;2023-11-21T13:03:10;46.03;;;22.13;;
6374;SDS011;35400;45.472;-122.822;2023-11-21T13:05:41;42.20;;;22.07;;
6374;SDS011;35400;45.472;-122.822;2023-11-21T13:08:10;23.37;;;11.97;;
6374;SDS011;35400;45.472;-122.822;2023-11-21T13:10:40;14.00;;;7.57;;
6374;SDS011;35400;45.472;-122.822;2023-11-21T13:13:09;9.33;;;4.97;;
6374;SDS011;35400;45.472;-122.822;2023-11-21T13:18:16;3.23;;;1.40;;
6374;SDS011;35400;45.472;-122.822;2023-11-21T13:20:43;2.00;;;1.10;;
6374;SDS011;35400;45.472;-122.822;2023-11-21T13:23:11;1.33;;;0.83;;
6374;SDS011;35400;45.472;-122.822;2023-11-21T13:25:39;2.60;;;0.97;;
6374;SDS011;35400;45.472;-122.822;2023-11-21T13:28:11;1.30;;;0.90;;
6374;SDS011;35400;45.472;-122.822;2023-11-21T13:30:38;9.77;;;5.43;;
6374;SDS011;35400;45.472;-122.822;2023-11-21T13:33:06;4.50;;;2.73;;
6374;SDS011;35400;45.472;-122.822;2023-11-21T13:35:34;1.97;;;1.30;;
6374;SDS011;35400;45.472;-122.822;2023-11-21T13:38:13;1.83;;;0.90;;
6374;SDS011;35400;45.472;-122.822;2023-11-21T13:40:46;1.67;;;0.70;;
6374;SDS011;35400;45.472;-122.822;2023-11-21T13:43:15;2.77;;;0.80;;
6374;SDS011;35400;45.472;-122.822;2023-11-21T13:45:46;2.17;;;0.97;;
6374;SDS011;35400;45.472;-122.822;2023-11-21T13:48:21;3.07;;;0.80;;
6374;SDS011;35400;45.472;-122.822;2023-11-21T13:50:57;3.47;;;1.03;;
6374;SDS011;35400;45.472;-122.822;2023-11-21T13:53:26;2.27;;;1.00;;
6374;SDS011;35400;45.472;-122.822;2023-11-21T13:55:54;2.53;;;1.17;;
6374;SDS011;35400;45.472;-122.822;2023-11-21T13:58:23;2.63;;;1.20;;
6374;SDS011;35400;45.472;-122.822;2023-11-21T14:01:05;1.67;;;1.00;;
6374;SDS011;35400;45.472;-122.822;2023-11-21T14:03:39;5.33;;;1.33;;
6374;SDS011;35400;45.472;-122.822;2023-11-21T14:06:16;2.33;;;1.17;;
6374;SDS011;35400;45.472;-122.822;2023-11-21T14:08:50;3.37;;;1.00;;
6374;SDS011;35400;45.472;-122.822;2023-11-21T14:11:17;1.57;;;1.10;;
6374;SDS011;35400;45.472;-122.822;2023-11-21T14:13:47;3.57;;;1.20;;
6374;SDS011;35400;45.472;-122.822;2023-11-21T14:16:15;2.70;;;1.30;;
6374;SDS011;35400;45.472;-122.822;2023-11-21T14:18:42;2.40;;;1.63;;
6374;SDS011;35400;45.472;-122.822;2023-11-21T14:21:27;2.30;;;1.40;;
6374;SDS011;35400;45.472;-122.822;2023-11-21T14:23:53;2.50;;;1.23;;
6374;SDS011;35400;45.472;-122.822;2023-11-21T14:26:21;3.77;;;1.57;;
6374;SDS011;35400;45.472;-122.822;2023-11-21T14:28:50;3.27;;;1.50;;
6374;SDS011;35400;45.472;-122.822;2023-11-21T14:31:19;4.27;;;1.20;;
6374;SDS011;35400;45.472;-122.822;2023-11-21T14:33:46;1.70;;;1.60;;
6374;SDS011;35400;45.472;-122.822;2023-11-21T14:36:12;3.13;;;1.30;;
6374;SDS011;35400;45.472;-122.822;2023-11-21T14:38:42;2.33;;;1.20;;